sensor_id;sensor_type;location;lat;lon;timestamp;pressure;altitude;pressure_sealevel;temperature;humidity
11314;BME280;5712;48.858;9.206;2023-03-16T00:02:24;98567.09;;;-0.44;100.00
11314;BME280;5712;48.858;9.206;2023-03-16T00:04:52;98572.28;;;-0.44;100.00
11314;BME280;5712;48.858;9.206;2023-03-16T00:07:19;98573.88;;;-0.37;100.00
11314;BME280;5712;48.858;9.206;2023-03-16T00:09:46;98573.97;;;-0.43;100.00
11314;BME280;5712;48.858;9.206;2023-03-16T00:12:14;98574.88;;;-0.44;100.00
11314;BME280;5712;48.858;9.206;2023-03-16T00:14:41;98577.47;;;-0.44;100.00
11314;BME280;5712;48.858;9.206;2023-03-16T00:17:09;98577.47;;;-0.44;100.00
11314;BME280;5712;48.858;9.206;2023-03-16T00:19:44;98567.09;;;-0.44;100.00
11314;BME280;5712;48.858;9.206;2023-03-16T00:22:13;98573.16;;;-0.45;100.00
11314;BME280;5712;48.858;9.206;2023-03-16T00:24:40;98570.59;;;-0.47;100.00
11314;BME280;5712;48.858;9.206;2023-03-16T00:27:08;98571.44;;;-0.46;100.00
11314;BME280;5712;48.858;9.206;2023-03-16T00:29:39;98567.13;;;-0.47;100.00
11314;BME280;5712;48.858;9.206;2023-03-16T00:32:11;98572.41;;;-0.50;100.00
11314;BME280;5712;48.858;9.206;2023-03-16T00:34:38;98572.41;;;-0.50;100.00
11314;BME280;5712;48.858;9.206;2023-03-16T00:37:04;98575.00;;;-0.52;100.00
11314;BME280;5712;48.858;9.206;2023-03-16T00:39:32;98579.34;;;-0.52;100.00
11314;BME280;5712;48.858;9.206;2023-03-16T00:42:00;98575.91;;;-0.54;100.00
11314;BME280;5712;48.858;9.206;2023-03-16T00:44:27;98572.50;;;-0.56;100.00
11314;BME280;5712;48.858;9.206;2023-03-16T00:46:54;98573.41;;;-0.57;100.00
11314;BME280;5712;48.858;9.206;2023-03-16T00:49:23;98569.06;;;-0.58;100.00
11314;BME280;5712;48.858;9.206;2023-03-16T00:51:49;98573.41;;;-0.57;100.00
11314;BME280;5712;48.858;9.206;2023-03-16T00:54:15;98563.97;;;-0.64;100.00
11314;BME280;5712;48.858;9.206;2023-03-16T00:56:44;98569.16;;;-0.64;100.00
11314;BME280;5712;48.858;9.206;2023-03-16T00:59:11;98560.56;;;-0.66;100.00
11314;BME280;5712;48.858;9.206;2023-03-16T01:01:37;98571.81;;;-0.66;100.00
11314;BME280;5712;48.858;9.206;2023-03-16T01:04:04;98568.34;;;-0.65;100.00
11314;BME280;5712;48.858;9.206;2023-03-16T01:06:30;98571.03;;;-0.69;100.00
11314;BME280;5712;48.858;9.206;2023-03-16T01:08:57;98574.47;;;-0.70;100.00
11314;BME280;5712;48.858;9.206;2023-03-16T01:11:23;98566.78;;;-0.75;100.00
11314;BME280;5712;48.858;9.206;2023-03-16T01:13:51;98569.34;;;-0.73;100.00
11314;BME280;5712;48.858;9.206;2023-03-16T01:16:19;98563.34;;;-0.75;100.00
11314;BME280;5712;48.858;9.206;2023-03-16T01:18:47;98560.78;;;-0.78;100.00
11314;BME280;5712;48.858;9.206;2023-03-16T01:21:14;98559.13;;;-0.82;100.00
11314;BME280;5712;48.858;9.206;2023-03-16T01:23:41;98566.06;;;-0.81;100.00
11314;BME280;5712;48.858;9.206;2023-03-16T01:26:09;98557.41;;;-0.82;100.00
11314;BME280;5712;48.858;9.206;2023-03-16T01:28:36;98555.72;;;-0.84;100.00
11314;BME280;5712;48.858;9.206;2023-03-16T01:31:06;98546.22;;;-0.85;100.00
11314;BME280;5712;48.858;9.206;2023-03-16T01:33:33;98547.09;;;-0.86;100.00
11314;BME280;5712;48.858;9.206;2023-03-16T01:36:02;98548.84;;;-0.88;100.00
11314;BME280;5712;48.858;9.206;2023-03-16T01:38:30;98548.91;;;-0.90;100.00
11314;BME280;5712;48.858;9.206;2023-03-16T01:40:56;98547.19;;;-0.91;100.00
11314;BME280;5712;48.858;9.206;2023-03-16T01:43:25;98548.13;;;-0.95;100.00
11314;BME280;5712;48.858;9.206;2023-03-16T01:46:14;98547.25;;;-0.95;100.00
11314;BME280;5712;48.858;9.206;2023-03-16T01:48:45;98549.81;;;-0.94;100.00
11314;BME280;5712;48.858;9.206;2023-03-16T01:51:18;98549.91;;;-0.98;100.00
11314;BME280;5712;48.858;9.206;2023-03-16T01:53:48;98549.09;;;-1.00;100.00
11314;BME280;5712;48.858;9.206;2023-03-16T01:56:21;98543.03;;;-1.01;100.00
11314;BME280;5712;48.858;9.206;2023-03-16T01:58:51;98544.72;;;-0.98;100.00
11314;BME280;5712;48.858;9.206;2023-03-16T02:01:25;98538.81;;;-1.06;100.00
11314;BME280;5712;48.858;9.206;2023-03-16T02:03:54;98537.94;;;-1.05;100.00
11314;BME280;5712;48.858;9.206;2023-03-16T02:06:23;98538.81;;;-1.06;100.00
11314;BME280;5712;48.858;9.206;2023-03-16T02:08:50;98540.56;;;-1.08;100.00
11314;BME280;5712;48.858;9.206;2023-03-16T02:11:20;98535.41;;;-1.10;100.00
11314;BME280;5712;48.858;9.206;2023-03-16T02:13:47;98530.25;;;-1.11;100.00
11314;BME280;5712;48.858;9.206;2023-03-16T02:16:16;98528.47;;;-1.09;100.00
11314;BME280;5712;48.858;9.206;2023-03-16T02:18:46;98523.25;;;-1.06;100.00
11314;BME280;5712;48.858;9.206;2023-03-16T02:21:17;98522.25;;;-0.99;100.00
11314;BME280;5712;48.858;9.206;2023-03-16T02:23:45;98523.09;;;-0.97;100.00
11314;BME280;5712;48.858;9.206;2023-03-16T02:26:17;98526.59;;;-1.01;100.00
11314;BME280;5712;48.858;9.206;2023-03-16T02:28:55;98523.19;;;-1.03;100.00
11314;BME280;5712;48.858;9.206;2023-03-16T02:31:28;98529.28;;;-1.04;100.00
11314;BME280;5712;48.858;9.206;2023-03-16T02:33:55;98520.81;;;-1.17;100.00
11314;BME280;5712;48.858;9.206;2023-03-16T02:36:22;98522.72;;;-1.26;100.00
11314;BME280;5712;48.858;9.206;2023-03-16T02:38:49;98514.19;;;-1.33;100.00
11314;BME280;5712;48.858;9.206;2023-03-16T02:41:17;98522.03;;;-1.37;100.00
11314;BME280;5712;48.858;9.206;2023-03-16T02:43:47;98524.72;;;-1.42;100.00
11314;BME280;5712;48.858;9.206;2023-03-16T02:46:18;98511.75;;;-1.43;100.00
11314;BME280;5712;48.858;9.206;2023-03-16T02:48:52;98518.63;;;-1.41;100.00
11314;BME280;5712;48.858;9.206;2023-03-16T02:51:20;98510.84;;;-1.39;100.00
11314;BME280;5712;48.858;9.206;2023-03-16T02:53:46;98512.44;;;-1.32;100.00
11314;BME280;5712;48.858;9.206;2023-03-16T02:56:13;98506.28;;;-1.25;100.00
11314;BME280;5712;48.858;9.206;2023-03-16T02:58:39;98502.75;;;-1.21;100.00
11314;BME280;5712;48.858;9.206;2023-03-16T03:01:05;98512.25;;;-1.20;100.00
11314;BME280;5712;48.858;9.206;2023-03-16T03:03:32;98504.44;;;-1.17;100.00
11314;BME280;5712;48.858;9.206;2023-03-16T03:06:00;98500.88;;;-1.13;100.00
11314;BME280;5712;48.858;9.206;2023-03-16T03:08:27;98501.72;;;-1.11;100.00
11314;BME280;5712;48.858;9.206;2023-03-16T03:10:53;98499.13;;;-1.11;100.00
11314;BME280;5712;48.858;9.206;2023-03-16T03:13:19;98507.75;;;-1.09;100.00
11314;BME280;5712;48.858;9.206;2023-03-16T03:15:46;98501.69;;;-1.10;100.00
11314;BME280;5712;48.858;9.206;2023-03-16T03:18:12;98509.50;;;-1.11;100.00
11314;BME280;5712;48.858;9.206;2023-03-16T03:20:39;98503.44;;;-1.10;100.00
11314;BME280;5712;48.858;9.206;2023-03-16T03:23:07;98513.00;;;-1.14;100.00
11314;BME280;5712;48.858;9.206;2023-03-16T03:25:33;98502.75;;;-1.20;100.00
11314;BME280;5712;48.858;9.206;2023-03-16T03:28:01;98501.06;;;-1.22;100.00
11314;BME280;5712;48.858;9.206;2023-03-16T03:30:29;98496.59;;;-1.14;100.00
11314;BME280;5712;48.858;9.206;2023-03-16T03:32:56;98476.72;;;-1.15;100.00
11314;BME280;5712;48.858;9.206;2023-03-16T03:35:23;98481.91;;;-1.15;100.00
11314;BME280;5712;48.858;9.206;2023-03-16T03:37:50;98487.09;;;-1.15;100.00
11314;BME280;5712;48.858;9.206;2023-03-16T03:40:18;98479.38;;;-1.18;100.00
11314;BME280;5712;48.858;9.206;2023-03-16T03:42:45;98482.00;;;-1.21;100.00
11314;BME280;5712;48.858;9.206;2023-03-16T03:45:13;98483.78;;;-1.23;100.00
11314;BME280;5712;48.858;9.206;2023-03-16T03:47:40;98482.94;;;-1.25;100.00
11314;BME280;5712;48.858;9.206;2023-03-16T03:50:08;98483.72;;;-1.20;100.00
11314;BME280;5712;48.858;9.206;2023-03-16T03:52:36;98487.16;;;-1.18;100.00
11314;BME280;5712;48.858;9.206;2023-03-16T03:55:02;98475.03;;;-1.16;100.00
11314;BME280;5712;48.858;9.206;2023-03-16T03:57:31;98482.81;;;-1.18;100.00
11314;BME280;5712;48.858;9.206;2023-03-16T03:59:57;98470.72;;;-1.17;100.00
11314;BME280;5712;48.858;9.206;2023-03-16T04:02:24;98469.88;;;-1.19;100.00
11314;BME280;5712;48.858;9.206;2023-03-16T04:04:50;98468.16;;;-1.20;100.00
11314;BME280;5712;48.858;9.206;2023-03-16T04:07:17;98468.25;;;-1.23;100.00
11314;BME280;5712;48.858;9.206;2023-03-16T04:09:43;98469.06;;;-1.21;100.00
11314;BME280;5712;48.858;9.206;2023-03-16T04:12:10;98469.97;;;-1.25;100.00
11314;BME280;5712;48.858;9.206;2023-03-16T04:14:38;98478.63;;;-1.26;100.00
11314;BME280;5712;48.858;9.206;2023-03-16T04:17:04;98466.56;;;-1.27;100.00
11314;BME280;5712;48.858;9.206;2023-03-16T04:19:31;98470.03;;;-1.28;100.00
11314;BME280;5712;48.858;9.206;2023-03-16T04:21:58;98472.63;;;-1.28;100.00
11314;BME280;5712;48.858;9.206;2023-03-16T04:24:24;98470.88;;;-1.26;100.00
11314;BME280;5712;48.858;9.206;2023-03-16T04:26:51;98462.19;;;-1.24;100.00
11314;BME280;5712;48.858;9.206;2023-03-16T04:29:18;98461.34;;;-1.24;100.00
11314;BME280;5712;48.858;9.206;2023-03-16T04:31:46;98462.16;;;-1.22;100.00
11314;BME280;5712;48.858;9.206;2023-03-16T04:34:12;98457.00;;;-1.24;100.00
11314;BME280;5712;48.858;9.206;2023-03-16T04:36:39;98459.50;;;-1.19;100.00
11314;BME280;5712;48.858;9.206;2023-03-16T04:39:06;98450.91;;;-1.21;100.00
11314;BME280;5712;48.858;9.206;2023-03-16T04:41:33;98446.50;;;-1.16;100.00
11314;BME280;5712;48.858;9.206;2023-03-16T04:44:03;98450.91;;;-1.21;100.00
11314;BME280;5712;48.858;9.206;2023-03-16T04:46:30;98454.38;;;-1.22;100.00
11314;BME280;5712;48.858;9.206;2023-03-16T04:48:58;98453.47;;;-1.20;100.00
11314;BME280;5712;48.858;9.206;2023-03-16T04:51:24;98456.09;;;-1.21;100.00
11314;BME280;5712;48.858;9.206;2023-03-16T04:53:51;98456.97;;;-1.21;100.00
11314;BME280;5712;48.858;9.206;2023-03-16T04:56:17;98452.59;;;-1.20;100.00
11314;BME280;5712;48.858;9.206;2023-03-16T04:58:44;98450.91;;;-1.21;100.00
11314;BME280;5712;48.858;9.206;2023-03-16T05:01:11;98455.97;;;-1.15;100.00
11314;BME280;5712;48.858;9.206;2023-03-16T05:03:38;98455.94;;;-1.12;100.00
11314;BME280;5712;48.858;9.206;2023-03-16T05:06:06;98454.16;;;-1.10;100.00
11314;BME280;5712;48.858;9.206;2023-03-16T05:08:32;98448.06;;;-1.08;100.00
11314;BME280;5712;48.858;9.206;2023-03-16T05:10:59;98455.06;;;-1.11;100.00
11314;BME280;5712;48.858;9.206;2023-03-16T05:13:25;98454.28;;;-1.16;100.00
11314;BME280;5712;48.858;9.206;2023-03-16T05:15:52;98451.72;;;-1.19;100.00
11314;BME280;5712;48.858;9.206;2023-03-16T05:18:19;98453.50;;;-1.21;100.00
11314;BME280;5712;48.858;9.206;2023-03-16T05:20:48;98451.69;;;-1.18;100.00
11314;BME280;5712;48.858;9.206;2023-03-16T05:23:17;98450.78;;;-1.15;100.00
11314;BME280;5712;48.858;9.206;2023-03-16T05:25:45;98453.47;;;-1.18;100.00
11314;BME280;5712;48.858;9.206;2023-03-16T05:28:11;98455.22;;;-1.22;100.00
11314;BME280;5712;48.858;9.206;2023-03-16T05:30:39;98450.88;;;-1.18;100.00
11314;BME280;5712;48.858;9.206;2023-03-16T05:33:06;98443.94;;;-1.19;100.00
11314;BME280;5712;48.858;9.206;2023-03-16T05:35:33;98449.13;;;-1.19;100.00
11314;BME280;5712;48.858;9.206;2023-03-16T05:37:59;98447.44;;;-1.22;100.00
11314;BME280;5712;48.858;9.206;2023-03-16T05:40:28;98452.59;;;-1.20;100.00
11314;BME280;5712;48.858;9.206;2023-03-16T05:42:55;98443.22;;;-1.26;100.00
11314;BME280;5712;48.858;9.206;2023-03-16T05:45:22;98440.63;;;-1.27;100.00
11314;BME280;5712;48.858;9.206;2023-03-16T05:47:49;98438.03;;;-1.27;100.00
11314;BME280;5712;48.858;9.206;2023-03-16T05:50:16;98442.22;;;-1.20;100.00
11314;BME280;5712;48.858;9.206;2023-03-16T05:52:43;98436.94;;;-1.14;100.00
11314;BME280;5712;48.858;9.206;2023-03-16T05:55:11;98437.69;;;-1.08;100.00
11314;BME280;5712;48.858;9.206;2023-03-16T05:57:40;98433.31;;;-1.04;100.00
11314;BME280;5712;48.858;9.206;2023-03-16T06:00:08;98433.31;;;-1.04;100.00
11314;BME280;5712;48.858;9.206;2023-03-16T06:02:39;98433.19;;;-0.98;100.00
11314;BME280;5712;48.858;9.206;2023-03-16T06:05:06;98439.88;;;-0.88;100.00
11314;BME280;5712;48.858;9.206;2023-03-16T06:07:33;98431.13;;;-0.81;100.00
11314;BME280;5712;48.858;9.206;2023-03-16T06:09:59;98432.72;;;-0.74;100.00
11314;BME280;5712;48.858;9.206;2023-03-16T06:12:28;98434.34;;;-0.70;100.00
11314;BME280;5712;48.858;9.206;2023-03-16T06:14:56;98428.19;;;-0.65;100.00
11314;BME280;5712;48.858;9.206;2023-03-16T06:17:23;98429.81;;;-0.61;100.00
11314;BME280;5712;48.858;9.206;2023-03-16T06:19:49;98425.44;;;-0.57;100.00
11314;BME280;5712;48.858;9.206;2023-03-16T06:22:16;98424.50;;;-0.55;100.00
11314;BME280;5712;48.858;9.206;2023-03-16T06:24:43;98427.84;;;-0.50;100.00
11314;BME280;5712;48.858;9.206;2023-03-16T06:27:10;98437.28;;;-0.44;100.00
11314;BME280;5712;48.858;9.206;2023-03-16T06:29:37;98438.84;;;-0.37;100.00
11314;BME280;5712;48.858;9.206;2023-03-16T06:32:05;98437.94;;;-0.35;100.00
11314;BME280;5712;48.858;9.206;2023-03-16T06:34:34;98437.00;;;-0.32;100.00
11314;BME280;5712;48.858;9.206;2023-03-16T06:37:01;98445.53;;;-0.28;100.00
11314;BME280;5712;48.858;9.206;2023-03-16T06:39:28;98443.66;;;-0.19;100.00
11314;BME280;5712;48.858;9.206;2023-03-16T06:41:54;98434.84;;;-0.14;100.00
11314;BME280;5712;48.858;9.206;2023-03-16T06:44:21;98440.03;;;-0.13;100.00
11314;BME280;5712;48.858;9.206;2023-03-16T06:46:47;98441.66;;;-0.08;100.00
11314;BME280;5712;48.858;9.206;2023-03-16T06:49:15;98433.69;;;-0.01;100.00
11314;BME280;5712;48.858;9.206;2023-03-16T06:51:45;98430.91;;;0.06;100.00
11314;BME280;5712;48.858;9.206;2023-03-16T06:54:13;98431.66;;;0.11;100.00
11314;BME280;5712;48.858;9.206;2023-03-16T06:56:40;98435.06;;;0.13;100.00
11314;BME280;5712;48.858;9.206;2023-03-16T06:59:07;98437.34;;;0.28;100.00
11314;BME280;5712;48.858;9.206;2023-03-16T07:01:33;98437.88;;;0.41;100.00
11314;BME280;5712;48.858;9.206;2023-03-16T07:04:00;98442.16;;;0.43;100.00
11314;BME280;5712;48.858;9.206;2023-03-16T07:06:30;98449.78;;;0.51;100.00
11314;BME280;5712;48.858;9.206;2023-03-16T07:08:56;98444.41;;;0.57;100.00
11314;BME280;5712;48.858;9.206;2023-03-16T07:11:23;98439.03;;;0.64;100.00
11314;BME280;5712;48.858;9.206;2023-03-16T07:13:49;98438.91;;;0.69;100.00
11314;BME280;5712;48.858;9.206;2023-03-16T07:16:16;98446.59;;;0.73;100.00
11314;BME280;5712;48.858;9.206;2023-03-16T07:18:42;98448.22;;;0.77;100.00
11314;BME280;5712;48.858;9.206;2023-03-16T07:21:09;98451.47;;;0.85;100.00
11314;BME280;5712;48.858;9.206;2023-03-16T07:23:40;98448.69;;;0.93;100.00
11314;BME280;5712;48.858;9.206;2023-03-16T07:26:16;98452.03;;;0.98;100.00
11314;BME280;5712;48.858;9.206;2023-03-16T07:28:45;98448.34;;;1.05;100.00
11314;BME280;5712;48.858;9.206;2023-03-16T07:31:12;98447.09;;;1.19;100.00
11314;BME280;5712;48.858;9.206;2023-03-16T07:33:39;98446.00;;;1.28;100.00
11314;BME280;5712;48.858;9.206;2023-03-16T07:36:06;98459.78;;;1.31;100.00
11314;BME280;5712;48.858;9.206;2023-03-16T07:38:34;98452.72;;;1.35;100.00
11314;BME280;5712;48.858;9.206;2023-03-16T07:41:07;98442.78;;;1.49;100.00
11314;BME280;5712;48.858;9.206;2023-03-16T07:43:33;98449.34;;;1.62;100.00
11314;BME280;5712;48.858;9.206;2023-03-16T07:46:02;98455.09;;;1.73;100.00
11314;BME280;5712;48.858;9.206;2023-03-16T07:48:29;98452.53;;;1.71;100.00
11314;BME280;5712;48.858;9.206;2023-03-16T07:50:56;98453.31;;;1.73;100.00
11314;BME280;5712;48.858;9.206;2023-03-16T07:53:23;98462.69;;;1.80;100.00
11314;BME280;5712;48.858;9.206;2023-03-16T07:55:49;98457.13;;;1.92;100.00
11314;BME280;5712;48.858;9.206;2023-03-16T07:58:17;98449.78;;;2.05;100.00
11314;BME280;5712;48.858;9.206;2023-03-16T08:00:43;98451.16;;;2.16;100.00
11314;BME280;5712;48.858;9.206;2023-03-16T08:03:10;98455.97;;;2.28;100.00
11314;BME280;5712;48.858;9.206;2023-03-16T08:05:38;98457.41;;;2.38;100.00
11314;BME280;5712;48.858;9.206;2023-03-16T08:08:05;98449.94;;;2.54;100.00
11314;BME280;5712;48.858;9.206;2023-03-16T08:10:33;98452.88;;;2.69;100.00
11314;BME280;5712;48.858;9.206;2023-03-16T08:13:01;98451.03;;;2.73;100.00
11314;BME280;5712;48.858;9.206;2023-03-16T08:15:30;98456.13;;;2.77;100.00
11314;BME280;5712;48.858;9.206;2023-03-16T08:17:58;98454.88;;;2.87;100.00
11314;BME280;5712;48.858;9.206;2023-03-16T08:20:24;98459.13;;;2.91;100.00
11314;BME280;5712;48.858;9.206;2023-03-16T08:22:51;98459.69;;;2.99;100.00
11314;BME280;5712;48.858;9.206;2023-03-16T08:25:17;98453.47;;;3.03;100.00
11314;BME280;5712;48.858;9.206;2023-03-16T08:27:45;98457.63;;;3.09;100.00
11314;BME280;5712;48.858;9.206;2023-03-16T08:30:13;98456.25;;;3.23;100.00
11314;BME280;5712;48.858;9.206;2023-03-16T08:32:42;98455.59;;;3.41;100.00
11314;BME280;5712;48.858;9.206;2023-03-16T08:35:11;98441.91;;;3.58;100.00
11314;BME280;5712;48.858;9.206;2023-03-16T08:37:38;98440.25;;;3.78;100.00
11314;BME280;5712;48.858;9.206;2023-03-16T08:40:06;98437.09;;;3.93;100.00
11314;BME280;5712;48.858;9.206;2023-03-16T08:42:35;98426.94;;;4.07;100.00
11314;BME280;5712;48.858;9.206;2023-03-16T08:45:03;98430.06;;;4.38;100.00
11314;BME280;5712;48.858;9.206;2023-03-16T08:47:34;98429.03;;;4.42;100.00
11314;BME280;5712;48.858;9.206;2023-03-16T08:50:01;98427.03;;;4.69;100.00
11314;BME280;5712;48.858;9.206;2023-03-16T08:52:30;98419.84;;;4.74;100.00
11314;BME280;5712;48.858;9.206;2023-03-16T08:54:56;98407.16;;;4.85;100.00
11314;BME280;5712;48.858;9.206;2023-03-16T08:57:22;98416.25;;;4.96;100.00
11314;BME280;5712;48.858;9.206;2023-03-16T08:59:49;98411.50;;;5.06;100.00
11314;BME280;5712;48.858;9.206;2023-03-16T09:02:16;98414.81;;;5.29;100.00
11314;BME280;5712;48.858;9.206;2023-03-16T09:04:42;98416.13;;;5.39;100.00
11314;BME280;5712;48.858;9.206;2023-03-16T09:07:11;98415.56;;;5.51;100.00
11314;BME280;5712;48.858;9.206;2023-03-16T09:09:38;98412.88;;;5.53;100.00
11314;BME280;5712;48.858;9.206;2023-03-16T09:12:05;98409.69;;;5.46;100.00
11314;BME280;5712;48.858;9.206;2023-03-16T09:14:32;98409.31;;;5.54;100.00
11314;BME280;5712;48.858;9.206;2023-03-16T09:16:59;98405.81;;;5.73;100.00
11314;BME280;5712;48.858;9.206;2023-03-16T09:19:26;98414.53;;;5.74;100.00
11314;BME280;5712;48.858;9.206;2023-03-16T09:21:52;98406.06;;;5.87;100.00
11314;BME280;5712;48.858;9.206;2023-03-16T09:24:20;98402.88;;;5.99;100.00
11314;BME280;5712;48.858;9.206;2023-03-16T09:26:46;98392.84;;;6.26;100.00
11314;BME280;5712;48.858;9.206;2023-03-16T09:29:13;98379.28;;;6.52;100.00
11314;BME280;5712;48.858;9.206;2023-03-16T09:31:43;98377.69;;;6.83;100.00
11314;BME280;5712;48.858;9.206;2023-03-16T09:34:09;98381.09;;;7.02;100.00
11314;BME280;5712;48.858;9.206;2023-03-16T09:36:36;98385.41;;;7.20;100.00
11314;BME280;5712;48.858;9.206;2023-03-16T09:39:03;98371.94;;;7.26;100.00
11314;BME280;5712;48.858;9.206;2023-03-16T09:41:40;98372.88;;;7.25;100.00
11314;BME280;5712;48.858;9.206;2023-03-16T09:44:23;98384.00;;;7.30;100.00
11314;BME280;5712;48.858;9.206;2023-03-16T09:46:54;98384.13;;;7.44;100.00
11314;BME280;5712;48.858;9.206;2023-03-16T09:49:26;98373.56;;;7.61;100.00
11314;BME280;5712;48.858;9.206;2023-03-16T09:51:58;98355.25;;;7.75;100.00
11314;BME280;5712;48.858;9.206;2023-03-16T09:54:36;98363.00;;;7.93;100.00
11314;BME280;5712;48.858;9.206;2023-03-16T09:57:13;98359.16;;;7.99;100.00
11314;BME280;5712;48.858;9.206;2023-03-16T09:59:42;98362.94;;;8.10;100.00
11314;BME280;5712;48.858;9.206;2023-03-16T10:02:36;98367.63;;;8.21;100.00
11314;BME280;5712;48.858;9.206;2023-03-16T10:05:07;98351.97;;;8.33;100.00
11314;BME280;5712;48.858;9.206;2023-03-16T10:07:42;98347.59;;;8.48;100.00
11314;BME280;5712;48.858;9.206;2023-03-16T10:10:19;98341.63;;;8.60;100.00
11314;BME280;5712;48.858;9.206;2023-03-16T10:12:51;98339.38;;;8.68;98.81
11314;BME280;5712;48.858;9.206;2023-03-16T10:15:22;98344.00;;;8.64;100.00
11314;BME280;5712;48.858;9.206;2023-03-16T10:17:54;98355.59;;;8.62;100.00
11314;BME280;5712;48.858;9.206;2023-03-16T10:20:24;98363.03;;;8.69;100.00
11314;BME280;5712;48.858;9.206;2023-03-16T10:22:53;98354.69;;;8.77;100.00
11314;BME280;5712;48.858;9.206;2023-03-16T10:25:27;98331.84;;;8.91;92.17
11314;BME280;5712;48.858;9.206;2023-03-16T10:27:58;98336.25;;;8.91;95.37
11314;BME280;5712;48.858;9.206;2023-03-16T10:30:26;98326.00;;;9.00;94.10
11314;BME280;5712;48.858;9.206;2023-03-16T10:32:55;98310.31;;;9.13;90.65
11314;BME280;5712;48.858;9.206;2023-03-16T10:35:29;98301.00;;;9.35;90.14
11314;BME280;5712;48.858;9.206;2023-03-16T10:38:00;98306.84;;;9.40;91.38
11314;BME280;5712;48.858;9.206;2023-03-16T10:40:30;98293.53;;;9.56;86.20
11314;BME280;5712;48.858;9.206;2023-03-16T10:43:05;98292.78;;;9.68;85.09
11314;BME280;5712;48.858;9.206;2023-03-16T10:45:34;98291.66;;;9.72;83.47
11314;BME280;5712;48.858;9.206;2023-03-16T10:48:10;98298.13;;;9.80;83.11
11314;BME280;5712;48.858;9.206;2023-03-16T10:50:38;98296.69;;;9.89;82.32
11314;BME280;5712;48.858;9.206;2023-03-16T10:53:14;98304.91;;;9.84;84.16
11314;BME280;5712;48.858;9.206;2023-03-16T10:55:42;98262.03;;;9.81;78.36
11314;BME280;5712;48.858;9.206;2023-03-16T10:58:21;98278.38;;;10.00;80.79
11314;BME280;5712;48.858;9.206;2023-03-16T11:00:49;98278.25;;;10.15;80.88
11314;BME280;5712;48.858;9.206;2023-03-16T11:03:23;98244.56;;;10.19;76.58
11314;BME280;5712;48.858;9.206;2023-03-16T11:05:59;98234.06;;;10.05;73.25
11314;BME280;5712;48.858;9.206;2023-03-16T11:08:36;98238.72;;;10.14;73.16
11314;BME280;5712;48.858;9.206;2023-03-16T11:11:09;98259.47;;;10.20;74.88
11314;BME280;5712;48.858;9.206;2023-03-16T11:13:42;98274.72;;;10.29;78.44
11314;BME280;5712;48.858;9.206;2023-03-16T11:16:20;98260.97;;;10.24;75.08
11314;BME280;5712;48.858;9.206;2023-03-16T11:18:51;98214.72;;;10.04;67.42
11314;BME280;5712;48.858;9.206;2023-03-16T11:21:26;98209.44;;;9.78;65.33
11314;BME280;5712;48.858;9.206;2023-03-16T11:23:57;98270.09;;;9.92;78.34
11314;BME280;5712;48.858;9.206;2023-03-16T11:26:30;98274.38;;;10.21;78.15
11314;BME280;5712;48.858;9.206;2023-03-16T11:29:01;98254.78;;;10.37;75.79
11314;BME280;5712;48.858;9.206;2023-03-16T11:31:38;98256.16;;;10.43;75.20
11314;BME280;5712;48.858;9.206;2023-03-16T11:34:13;98237.56;;;10.44;71.47
11314;BME280;5712;48.858;9.206;2023-03-16T11:36:46;98242.84;;;10.57;75.59
11314;BME280;5712;48.858;9.206;2023-03-16T11:39:24;98267.94;;;10.64;79.06
11314;BME280;5712;48.858;9.206;2023-03-16T11:41:59;98235.69;;;10.59;73.64
11314;BME280;5712;48.858;9.206;2023-03-16T11:44:32;98232.50;;;10.54;74.38
11314;BME280;5712;48.858;9.206;2023-03-16T11:47:06;98246.81;;;10.64;74.87
11314;BME280;5712;48.858;9.206;2023-03-16T11:49:49;98196.13;;;10.57;67.08
11314;BME280;5712;48.858;9.206;2023-03-16T11:52:26;98222.34;;;10.48;70.69
11314;BME280;5712;48.858;9.206;2023-03-16T11:55:06;98224.16;;;10.60;71.85
11314;BME280;5712;48.858;9.206;2023-03-16T11:57:46;98242.91;;;10.82;78.41
11314;BME280;5712;48.858;9.206;2023-03-16T12:00:26;98225.13;;;10.84;76.63
11314;BME280;5712;48.858;9.206;2023-03-16T12:03:08;98200.81;;;10.79;72.28
11314;BME280;5712;48.858;9.206;2023-03-16T12:05:47;98192.34;;;10.74;72.50
11314;BME280;5712;48.858;9.206;2023-03-16T12:08:40;98209.88;;;10.75;75.52
11314;BME280;5712;48.858;9.206;2023-03-16T12:11:18;98227.69;;;10.85;80.35
11314;BME280;5712;48.858;9.206;2023-03-16T12:13:59;98185.47;;;10.84;71.94
11314;BME280;5712;48.858;9.206;2023-03-16T12:16:43;98213.72;;;10.96;77.40
11314;BME280;5712;48.858;9.206;2023-03-16T12:19:15;98172.88;;;10.87;70.73
11314;BME280;5712;48.858;9.206;2023-03-16T12:21:45;98180.91;;;10.86;70.16
11314;BME280;5712;48.858;9.206;2023-03-16T12:24:15;98168.56;;;10.86;68.84
11314;BME280;5712;48.858;9.206;2023-03-16T12:26:45;98192.56;;;10.96;72.38
11314;BME280;5712;48.858;9.206;2023-03-16T12:29:22;98194.88;;;11.00;73.12
11314;BME280;5712;48.858;9.206;2023-03-16T12:31:53;98137.31;;;11.04;65.63
11314;BME280;5712;48.858;9.206;2023-03-16T12:34:26;98107.34;;;11.16;60.31
11314;BME280;5712;48.858;9.206;2023-03-16T12:37:10;98095.59;;;11.20;58.57
11314;BME280;5712;48.858;9.206;2023-03-16T12:40:04;98109.09;;;11.40;59.94
11314;BME280;5712;48.858;9.206;2023-03-16T12:43:01;98106.69;;;11.61;58.47
11314;BME280;5712;48.858;9.206;2023-03-16T12:45:35;98103.63;;;11.78;57.82
11314;BME280;5712;48.858;9.206;2023-03-16T12:48:16;98123.44;;;11.96;60.30
11314;BME280;5712;48.858;9.206;2023-03-16T12:50:49;98126.38;;;12.04;60.42
11314;BME280;5712;48.858;9.206;2023-03-16T12:53:41;98116.97;;;12.00;60.09
11314;BME280;5712;48.858;9.206;2023-03-16T12:56:10;98114.53;;;11.97;60.23
11314;BME280;5712;48.858;9.206;2023-03-16T12:58:44;98084.38;;;11.76;56.72
11314;BME280;5712;48.858;9.206;2023-03-16T13:01:14;98125.97;;;11.97;62.91
11314;BME280;5712;48.858;9.206;2023-03-16T13:03:43;98152.41;;;12.10;67.71
11314;BME280;5712;48.858;9.206;2023-03-16T13:06:21;98114.06;;;12.03;62.39
11314;BME280;5712;48.858;9.206;2023-03-16T13:08:51;98112.63;;;11.99;62.58
11314;BME280;5712;48.858;9.206;2023-03-16T13:11:20;98127.06;;;11.95;64.99
11314;BME280;5712;48.858;9.206;2023-03-16T13:13:50;98127.31;;;11.92;65.49
11314;BME280;5712;48.858;9.206;2023-03-16T13:16:25;98128.59;;;11.86;66.28
11314;BME280;5712;48.858;9.206;2023-03-16T13:18:53;98114.72;;;11.83;63.75